YPPD

Port Hedland International Airport

Airport
ICAO code
YPPD
IATA Code
PHE
Summary
ICAO Region
APAC
ICAO Territory
Location

, Western Australia

Serving
Port Hedland
Elevation
33 ft
Coordinates
20° 22' 40" S , 118° 37' 35" E
Metar
YPPD 171300Z AUTO 28007KT 9999 // NCD 20/17 Q1017 RF00.0/000.0

Airport map

Aerial View

SKYbrary Partners:

Safety knowledge contributed by: